createdAt,value
2018-08-12T00:00:05.810Z,0.00
2018-08-12T00:01:05.988Z,0.00
2018-08-12T00:02:06.166Z,0.00
2018-08-12T00:03:06.345Z,0.00
2018-08-12T00:04:06.581Z,0.00
2018-08-12T00:05:06.741Z,0.00
2018-08-12T00:06:06.905Z,0.00
2018-08-12T00:07:07.064Z,0.00
2018-08-12T00:08:07.267Z,0.00
2018-08-12T00:09:07.424Z,0.00
2018-08-12T00:10:07.614Z,0.00
2018-08-12T00:11:07.786Z,0.00
2018-08-12T00:12:07.948Z,0.00
2018-08-12T00:13:08.150Z,0.00
2018-08-12T00:14:08.347Z,0.00
2018-08-12T00:15:08.498Z,0.00
2018-08-12T00:16:08.653Z,0.00
2018-08-12T00:17:08.844Z,0.00
2018-08-12T00:18:09.021Z,0.00
2018-08-12T00:19:09.207Z,0.00
2018-08-12T00:20:09.430Z,0.00
2018-08-12T00:21:09.527Z,0.00
2018-08-12T00:22:09.711Z,0.00
2018-08-12T00:23:09.887Z,0.00
2018-08-12T00:24:10.266Z,0.00
2018-08-12T00:25:10.271Z,0.00
2018-08-12T00:26:10.427Z,0.00
2018-08-12T00:27:10.631Z,0.00
2018-08-12T00:28:10.775Z,0.00
2018-08-12T00:29:10.979Z,0.00
2018-08-12T00:30:11.159Z,0.00
2018-08-12T00:31:11.322Z,0.00
2018-08-12T00:32:11.522Z,0.00
2018-08-12T00:33:11.687Z,0.00
2018-08-12T00:34:11.874Z,0.00
2018-08-12T00:35:12.022Z,0.00
2018-08-12T00:36:12.212Z,0.00
2018-08-12T00:37:12.429Z,0.00
2018-08-12T00:38:12.588Z,0.00
2018-08-12T00:39:12.767Z,0.00
2018-08-12T00:40:12.956Z,0.00
2018-08-12T00:41:13.135Z,0.00
2018-08-12T00:42:13.326Z,0.00
2018-08-12T00:43:13.466Z,0.00
2018-08-12T00:44:13.642Z,0.00
2018-08-12T00:45:13.844Z,0.00
2018-08-12T00:46:14.028Z,0.00
2018-08-12T00:47:14.198Z,0.00
2018-08-12T00:48:14.380Z,0.00
2018-08-12T00:49:14.576Z,0.00
2018-08-12T00:50:14.730Z,0.00
2018-08-12T00:51:14.946Z,0.00
2018-08-12T00:52:15.075Z,0.00
2018-08-12T00:53:15.244Z,0.00
2018-08-12T00:54:15.453Z,0.00
2018-08-12T00:55:15.643Z,0.00
2018-08-12T00:56:15.834Z,0.00
2018-08-12T00:57:16.033Z,0.00
2018-08-12T00:58:17.052Z,0.00
2018-08-12T00:59:16.410Z,0.00
2018-08-12T01:00:16.606Z,0.00
2018-08-12T01:01:16.777Z,0.00
2018-08-12T01:02:16.934Z,0.00
2018-08-12T01:03:17.115Z,0.00
2018-08-12T01:04:17.322Z,0.00
2018-08-12T01:05:17.517Z,0.00
2018-08-12T01:06:17.705Z,0.00
2018-08-12T01:07:17.882Z,0.00
2018-08-12T01:08:18.068Z,0.00
2018-08-12T01:09:18.268Z,0.00
2018-08-12T01:10:18.415Z,0.00
2018-08-12T01:11:18.621Z,0.00
2018-08-12T01:12:18.779Z,0.00
2018-08-12T01:13:18.955Z,0.00
2018-08-12T01:14:19.134Z,0.00
2018-08-12T01:15:19.332Z,0.00
2018-08-12T01:16:20.083Z,0.00
2018-08-12T01:17:19.622Z,0.00
2018-08-12T01:18:19.810Z,0.00
2018-08-12T01:19:19.997Z,0.00
2018-08-12T01:20:20.179Z,0.00
2018-08-12T01:21:20.360Z,0.00
2018-08-12T01:22:20.559Z,0.00
2018-08-12T01:23:20.739Z,0.00
2018-08-12T01:24:20.891Z,0.00
2018-08-12T01:25:21.074Z,0.00
2018-08-12T01:26:21.248Z,0.00
2018-08-12T01:27:21.431Z,0.00
2018-08-12T01:28:21.621Z,0.00
2018-08-12T01:29:21.840Z,0.00
2018-08-12T01:30:22.028Z,0.00
2018-08-12T01:31:22.211Z,0.00
2018-08-12T01:32:22.402Z,0.00
2018-08-12T01:33:22.611Z,0.00
2018-08-12T01:34:22.812Z,0.00
2018-08-12T01:35:22.993Z,0.00
2018-08-12T01:36:23.197Z,0.00
2018-08-12T01:37:23.390Z,0.00
2018-08-12T01:38:23.557Z,0.00
2018-08-12T01:39:23.735Z,0.00
2018-08-12T01:40:23.921Z,0.00
2018-08-12T01:41:24.124Z,0.00
2018-08-12T01:42:24.277Z,0.00
2018-08-12T01:43:24.459Z,0.00
2018-08-12T01:44:24.668Z,0.00
2018-08-12T01:45:24.814Z,0.00
2018-08-12T01:46:24.976Z,0.00
2018-08-12T01:47:25.153Z,0.00
2018-08-12T01:48:25.367Z,0.00
2018-08-12T01:49:25.518Z,0.00
2018-08-12T01:50:25.731Z,0.00
2018-08-12T01:51:25.867Z,0.00
2018-08-12T01:52:26.053Z,0.00
2018-08-12T01:53:26.226Z,0.00
2018-08-12T01:54:26.474Z,0.00
2018-08-12T01:55:26.571Z,0.00
2018-08-12T01:56:26.754Z,0.00
2018-08-12T01:57:26.959Z,0.00
2018-08-12T01:58:27.135Z,0.00
2018-08-12T01:59:27.357Z,0.00
2018-08-12T02:00:27.461Z,0.00
2018-08-12T02:01:27.645Z,0.00
2018-08-12T02:02:27.811Z,0.00
2018-08-12T02:03:27.994Z,0.00
2018-08-12T02:04:28.179Z,0.00
2018-08-12T02:05:28.363Z,0.00
2018-08-12T02:06:28.548Z,0.00
2018-08-12T02:07:28.746Z,0.00
2018-08-12T02:08:28.926Z,0.00
2018-08-12T02:09:29.105Z,0.00
2018-08-12T02:10:29.285Z,0.00
2018-08-12T02:11:29.466Z,0.00
2018-08-12T02:12:29.712Z,0.00
2018-08-12T02:13:29.846Z,0.00
2018-08-12T02:14:30.026Z,0.00
2018-08-12T02:15:30.190Z,0.00
2018-08-12T02:16:30.435Z,0.00
2018-08-12T02:17:30.563Z,0.00
2018-08-12T02:18:30.749Z,0.00
2018-08-12T02:19:30.928Z,0.00
2018-08-12T02:20:31.087Z,0.00
2018-08-12T02:21:31.347Z,0.00
2018-08-12T02:22:31.456Z,0.00
2018-08-12T02:23:31.649Z,0.00
2018-08-12T02:24:31.810Z,0.00
2018-08-12T02:25:32.001Z,0.00
2018-08-12T02:26:32.181Z,0.00
2018-08-12T02:27:32.421Z,0.00
2018-08-12T02:28:32.590Z,0.00
2018-08-12T02:29:32.795Z,0.00
2018-08-12T02:30:32.953Z,0.00
2018-08-12T02:31:33.182Z,0.00
2018-08-12T02:32:33.345Z,0.00
2018-08-12T02:33:33.543Z,0.00
2018-08-12T02:34:33.699Z,0.00
2018-08-12T02:35:33.855Z,0.00
2018-08-12T02:36:34.049Z,0.00
2018-08-12T02:37:34.224Z,0.00
2018-08-12T02:38:34.403Z,0.00
2018-08-12T02:39:34.583Z,0.00
2018-08-12T02:40:34.817Z,0.00
2018-08-12T02:41:34.951Z,0.00
2018-08-12T02:42:35.144Z,0.00
2018-08-12T02:43:35.344Z,0.00
2018-08-12T02:44:35.534Z,0.00
2018-08-12T02:45:35.728Z,0.00
2018-08-12T02:46:35.961Z,0.00
2018-08-12T02:47:36.105Z,0.00
2018-08-12T02:48:36.291Z,0.00
2018-08-12T02:49:36.511Z,0.00
2018-08-12T02:50:36.652Z,0.00
2018-08-12T02:51:36.807Z,0.00
2018-08-12T02:52:36.975Z,0.00
2018-08-12T02:53:37.173Z,0.00
2018-08-12T02:54:37.370Z,0.00
2018-08-12T02:55:37.547Z,0.00
2018-08-12T02:56:37.725Z,0.00
2018-08-12T02:57:37.974Z,0.00
2018-08-12T02:58:38.092Z,0.00
2018-08-12T02:59:38.263Z,0.00
2018-08-12T03:00:38.460Z,0.00
2018-08-12T03:01:38.620Z,0.00
2018-08-12T03:02:38.793Z,0.00
2018-08-12T03:03:38.977Z,0.00
2018-08-12T03:04:39.163Z,0.00
2018-08-12T03:05:39.343Z,0.00
2018-08-12T03:06:39.578Z,0.00
2018-08-12T03:07:39.733Z,0.00
2018-08-12T03:08:39.887Z,0.00
2018-08-12T03:09:40.057Z,0.00
2018-08-12T03:10:40.242Z,0.00
2018-08-12T03:11:40.466Z,0.00
2018-08-12T03:12:40.610Z,0.00
2018-08-12T03:13:40.775Z,0.00
2018-08-12T03:14:40.944Z,0.00
2018-08-12T03:15:41.122Z,0.00
2018-08-12T03:16:41.320Z,0.00
2018-08-12T03:17:41.500Z,0.00
2018-08-12T03:18:41.685Z,0.00
2018-08-12T03:19:41.932Z,0.00
2018-08-12T03:20:42.061Z,0.00
2018-08-12T03:21:42.256Z,0.00
2018-08-12T03:22:42.450Z,0.00
2018-08-12T03:23:42.630Z,0.00
2018-08-12T03:24:42.789Z,0.00
2018-08-12T03:25:42.940Z,0.00
2018-08-12T03:26:43.134Z,0.00
2018-08-12T03:27:43.339Z,0.00
2018-08-12T03:28:43.503Z,0.00
2018-08-12T03:29:43.639Z,0.00
2018-08-12T03:30:43.813Z,0.00
2018-08-12T03:31:43.984Z,0.00
2018-08-12T03:32:44.166Z,0.00
2018-08-12T03:33:44.369Z,0.00
2018-08-12T03:34:44.540Z,0.00
2018-08-12T03:35:44.712Z,0.00
2018-08-12T03:36:44.939Z,0.00
2018-08-12T03:37:45.141Z,0.00
2018-08-12T03:38:45.260Z,0.00
2018-08-12T03:39:45.433Z,0.00
2018-08-12T03:40:45.628Z,0.00
2018-08-12T03:41:45.804Z,0.00
2018-08-12T03:42:45.965Z,0.00
2018-08-12T03:43:46.159Z,0.00
2018-08-12T03:44:46.359Z,0.00
2018-08-12T03:45:46.546Z,0.00
2018-08-12T03:46:46.747Z,0.00
2018-08-12T03:47:46.892Z,0.00
2018-08-12T03:48:47.139Z,0.00
2018-08-12T03:49:47.267Z,5.63
2018-08-12T03:50:47.430Z,5.63
2018-08-12T03:51:47.614Z,5.63
2018-08-12T03:52:47.840Z,5.63
2018-08-12T03:53:47.957Z,5.63
2018-08-12T03:54:48.116Z,5.63
2018-08-12T03:55:48.312Z,5.63
2018-08-12T03:56:48.517Z,11.25
2018-08-12T03:57:48.687Z,11.25
2018-08-12T03:58:48.897Z,11.25
2018-08-12T03:59:49.081Z,16.88
2018-08-12T04:00:49.299Z,16.88
2018-08-12T04:01:49.447Z,16.88
2018-08-12T04:02:49.600Z,16.88
2018-08-12T04:03:49.785Z,22.50
2018-08-12T04:04:50.036Z,22.50
2018-08-12T04:05:50.134Z,22.50
2018-08-12T04:06:50.343Z,22.50
2018-08-12T04:07:50.565Z,28.13
2018-08-12T04:08:50.713Z,28.13
2018-08-12T04:09:50.907Z,33.75
2018-08-12T04:10:51.119Z,33.75
2018-08-12T04:11:51.279Z,39.38
2018-08-12T04:12:51.439Z,45.00
2018-08-12T04:13:51.602Z,50.63
2018-08-12T04:14:51.777Z,50.63
2018-08-12T04:15:51.979Z,56.25
2018-08-12T04:16:52.160Z,61.88
2018-08-12T04:17:52.372Z,61.88
2018-08-12T04:18:52.555Z,67.50
2018-08-12T04:19:52.762Z,67.50
2018-08-12T04:20:52.951Z,73.13
2018-08-12T04:21:53.093Z,78.75
2018-08-12T04:22:53.274Z,78.75
2018-08-12T04:23:53.456Z,84.38
2018-08-12T04:24:53.628Z,90.00
2018-08-12T04:25:53.842Z,95.63
2018-08-12T04:26:54.049Z,101.25
2018-08-12T04:27:54.254Z,112.50
2018-08-12T04:28:54.420Z,118.13
2018-08-12T04:29:54.577Z,123.75
2018-08-12T04:30:54.763Z,129.38
2018-08-12T04:31:54.948Z,146.25
2018-08-12T04:32:55.126Z,163.13
2018-08-12T04:33:55.318Z,163.13
2018-08-12T04:34:55.506Z,168.75
2018-08-12T04:35:55.676Z,168.75
2018-08-12T04:36:55.881Z,168.75
2018-08-12T04:37:56.079Z,180.00
2018-08-12T04:38:56.229Z,180.00
2018-08-12T04:39:56.452Z,185.63
2018-08-12T04:40:56.576Z,191.25
2018-08-12T04:41:56.773Z,202.50
2018-08-12T04:42:56.957Z,202.50
2018-08-12T04:43:57.173Z,213.75
2018-08-12T04:44:57.318Z,230.63
2018-08-12T04:45:57.520Z,253.13
2018-08-12T04:46:57.724Z,270.00
2018-08-12T04:47:57.885Z,286.88
2018-08-12T04:48:58.073Z,376.88
2018-08-12T04:49:58.220Z,483.75
2018-08-12T04:50:58.404Z,748.13
2018-08-12T04:51:58.581Z,1051.88
2018-08-12T04:52:58.758Z,1119.38
2018-08-12T04:53:58.950Z,1215.00
2018-08-12T04:54:59.110Z,1096.88
2018-08-12T04:55:59.289Z,990.00
2018-08-12T04:56:59.501Z,1063.13
2018-08-12T04:57:59.664Z,1181.25
2018-08-12T04:58:59.848Z,1248.75
2018-08-12T05:00:00.057Z,1254.38
2018-08-12T05:01:00.233Z,1299.38
2018-08-12T05:02:00.438Z,1299.38
2018-08-12T05:03:00.595Z,1260.00
2018-08-12T05:04:00.810Z,1035.00
2018-08-12T05:05:00.966Z,776.25
2018-08-12T05:06:01.157Z,826.88
2018-08-12T05:07:01.377Z,1035.00
2018-08-12T05:08:01.501Z,1001.25
2018-08-12T05:09:01.689Z,961.88
2018-08-12T05:10:01.901Z,1029.38
2018-08-12T05:11:02.061Z,1046.25
2018-08-12T05:12:02.251Z,1125.00
2018-08-12T05:13:02.463Z,1136.25
2018-08-12T05:14:02.620Z,1209.38
2018-08-12T05:15:02.784Z,1068.75
2018-08-12T05:16:03.023Z,990.00
2018-08-12T05:17:03.136Z,883.13
2018-08-12T05:18:03.344Z,832.50
2018-08-12T05:19:03.527Z,928.13
2018-08-12T05:20:03.663Z,871.88
2018-08-12T05:21:03.870Z,866.25
2018-08-12T05:22:04.040Z,810.00
2018-08-12T05:23:04.240Z,781.88
2018-08-12T05:24:04.408Z,804.38
2018-08-12T05:25:04.619Z,1029.38
2018-08-12T05:26:04.829Z,1080.00
2018-08-12T05:27:05.025Z,961.88
2018-08-12T05:28:05.170Z,804.38
2018-08-12T05:29:05.371Z,838.13
2018-08-12T05:30:05.594Z,905.63
2018-08-12T05:31:05.769Z,978.75
2018-08-12T05:32:05.973Z,1006.88
2018-08-12T05:33:06.142Z,1012.50
2018-08-12T05:34:06.317Z,978.75
2018-08-12T05:35:06.560Z,973.13
2018-08-12T05:36:06.712Z,967.50
2018-08-12T05:37:06.919Z,990.00
2018-08-12T05:38:07.050Z,900.00
2018-08-12T05:39:07.212Z,939.38
2018-08-12T05:40:07.398Z,928.13
2018-08-12T05:41:07.587Z,1091.25
2018-08-12T05:42:08.649Z,1220.63
2018-08-12T05:43:07.965Z,1411.88
2018-08-12T05:44:08.158Z,1552.50
2018-08-12T05:45:08.337Z,1507.50
2018-08-12T05:46:08.555Z,1636.88
2018-08-12T05:47:08.723Z,1608.75
2018-08-12T05:48:08.916Z,1659.38
2018-08-12T05:49:09.083Z,1738.13
2018-08-12T05:50:09.296Z,1839.38
2018-08-12T05:51:09.499Z,1906.88
2018-08-12T05:52:09.673Z,1963.13
2018-08-12T05:53:09.865Z,2261.25
2018-08-12T05:54:10.003Z,2345.63
2018-08-12T05:55:10.198Z,2109.38
2018-08-12T05:56:10.359Z,2171.25
2018-08-12T05:57:10.580Z,1912.50
2018-08-12T05:58:10.773Z,1771.88
2018-08-12T05:59:10.911Z,1833.75
2018-08-12T06:00:11.103Z,1850.63
2018-08-12T06:01:11.284Z,1940.63
2018-08-12T06:02:11.507Z,1923.75
2018-08-12T06:03:11.684Z,2385.00
2018-08-12T06:04:11.837Z,2435.63
2018-08-12T06:05:12.605Z,2430.00
2018-08-12T06:06:12.252Z,2407.50
2018-08-12T06:07:12.437Z,2390.63
2018-08-12T06:08:12.654Z,2373.75
2018-08-12T06:10:13.018Z,2334.38
2018-08-12T06:11:13.180Z,2306.25
2018-08-12T06:12:13.360Z,2283.75
2018-08-12T06:13:13.570Z,2244.38
2018-08-12T06:14:13.780Z,2205.00
2018-08-12T06:15:13.938Z,2154.38
2018-08-12T06:16:14.138Z,2058.75
2018-08-12T06:17:14.362Z,2025.00
2018-08-12T06:18:14.523Z,2013.75
2018-08-12T06:19:14.749Z,2081.25
2018-08-12T06:20:14.889Z,2205.00
2018-08-12T06:21:15.118Z,2278.13
2018-08-12T06:22:15.296Z,1805.63
2018-08-12T06:23:15.482Z,2002.50
2018-08-12T06:24:15.669Z,2334.38
2018-08-12T06:25:15.889Z,2328.75
2018-08-12T06:26:16.068Z,2306.25
2018-08-12T06:27:16.271Z,2295.00
2018-08-12T06:28:16.468Z,1676.25
2018-08-12T06:29:16.687Z,1794.38
2018-08-12T06:30:16.832Z,2008.13
2018-08-12T06:31:17.009Z,2126.25
2018-08-12T06:32:17.206Z,1996.88
2018-08-12T06:33:17.392Z,1580.63
2018-08-12T06:34:17.627Z,1389.38
2018-08-12T06:35:17.772Z,1361.25
2018-08-12T06:36:17.962Z,1344.38
2018-08-12T06:37:18.155Z,1681.88
2018-08-12T06:38:18.357Z,1721.25
2018-08-12T06:39:18.550Z,1732.50
2018-08-12T06:40:18.719Z,1839.38
2018-08-12T06:41:18.897Z,1715.63
2018-08-12T06:42:19.097Z,1541.25
2018-08-12T06:43:19.285Z,1603.13
2018-08-12T06:44:19.468Z,1704.38
2018-08-12T06:45:19.655Z,1659.38
2018-08-12T06:46:19.895Z,1580.63
2018-08-12T06:47:20.043Z,1946.25
2018-08-12T06:48:20.275Z,1715.63
2018-08-12T06:49:20.406Z,1276.88
2018-08-12T06:50:20.626Z,2379.38
2018-08-12T06:51:20.796Z,2171.25
2018-08-12T06:52:21.018Z,1974.38
2018-08-12T06:53:21.226Z,1856.25
2018-08-12T06:54:21.363Z,1974.38
2018-08-12T06:55:21.550Z,2002.50
2018-08-12T06:56:21.793Z,2070.00
2018-08-12T06:57:21.948Z,2120.63
2018-08-12T06:58:22.132Z,1895.63
2018-08-12T06:59:22.372Z,2008.13
2018-08-12T07:00:22.541Z,1845.00
2018-08-12T07:01:22.694Z,2086.88
2018-08-12T07:02:22.897Z,1951.88
2018-08-12T07:03:23.108Z,1963.13
2018-08-12T07:04:23.287Z,1873.13
2018-08-12T07:05:23.482Z,1839.38
2018-08-12T07:06:23.677Z,1783.13
2018-08-12T07:07:23.892Z,1800.00
2018-08-12T07:08:24.111Z,1794.38
2018-08-12T07:09:24.254Z,1839.38
2018-08-12T07:10:24.453Z,1935.00
2018-08-12T07:11:24.698Z,2154.38
2018-08-12T07:12:24.857Z,2266.88
2018-08-12T07:13:25.030Z,2041.88
2018-08-12T07:14:25.265Z,2148.75
2018-08-12T07:15:25.422Z,2154.38
2018-08-12T07:16:26.146Z,2036.25
2018-08-12T07:17:25.776Z,1738.13
2018-08-12T07:18:25.985Z,1248.75
2018-08-12T07:19:26.164Z,1445.63
2018-08-12T07:20:26.369Z,1794.38
2018-08-12T07:21:26.562Z,1608.75
2018-08-12T07:22:26.723Z,1620.00
2018-08-12T07:23:27.017Z,1873.13
2018-08-12T07:24:27.089Z,1963.13
2018-08-12T07:25:27.278Z,1805.63
2018-08-12T07:27:27.650Z,1811.25
2018-08-12T07:28:27.840Z,2013.75
2018-08-12T07:29:28.072Z,2025.00
2018-08-12T07:30:28.220Z,2075.63
2018-08-12T07:31:28.448Z,2154.38
2018-08-12T07:32:28.647Z,2131.88
2018-08-12T07:33:28.865Z,2047.50
2018-08-12T07:34:29.035Z,2036.25
2018-08-12T07:35:29.262Z,2041.88
2018-08-12T07:36:29.422Z,1884.38
2018-08-12T07:37:29.734Z,1395.00
2018-08-12T07:38:29.826Z,1378.13
2018-08-12T07:39:29.986Z,1912.50
2018-08-12T07:40:30.227Z,1895.63
2018-08-12T07:41:30.386Z,1721.25
2018-08-12T07:42:30.602Z,1563.75
2018-08-12T07:43:30.779Z,1440.00
2018-08-12T07:44:30.945Z,1395.00
2018-08-12T07:45:31.148Z,1395.00
2018-08-12T07:46:31.339Z,1490.63
2018-08-12T07:47:31.579Z,1496.25
2018-08-12T07:48:31.739Z,1260.00
2018-08-12T07:49:31.964Z,1141.88
2018-08-12T07:50:32.129Z,1063.13
2018-08-12T07:51:32.327Z,832.50
2018-08-12T07:52:32.505Z,787.50
2018-08-12T07:53:32.699Z,855.00
2018-08-12T07:54:32.886Z,894.38
2018-08-12T07:55:33.094Z,1091.25
2018-08-12T07:56:33.316Z,1271.25
2018-08-12T07:57:33.450Z,1260.00
2018-08-12T07:58:33.646Z,1468.13
2018-08-12T07:59:33.855Z,1147.50
2018-08-12T08:00:34.043Z,1260.00
2018-08-12T08:01:34.211Z,1411.88
2018-08-12T08:02:34.465Z,1288.13
2018-08-12T08:03:34.587Z,1260.00
2018-08-12T08:04:34.782Z,1186.88
2018-08-12T08:05:35.028Z,1113.75
2018-08-12T08:06:35.161Z,1113.75
2018-08-12T08:07:35.380Z,1091.25
2018-08-12T08:08:35.532Z,1057.50
2018-08-12T08:09:35.782Z,939.38
2018-08-12T08:10:35.937Z,871.88
2018-08-12T08:11:36.129Z,838.13
2018-08-12T08:12:36.335Z,967.50
2018-08-12T08:13:36.544Z,843.75
2018-08-12T08:14:36.718Z,691.88
2018-08-12T08:15:36.919Z,883.13
2018-08-12T08:16:37.100Z,1192.50
2018-08-12T08:17:37.284Z,1260.00
2018-08-12T08:18:37.534Z,1209.38
2018-08-12T08:19:37.671Z,1108.13
2018-08-12T08:20:37.851Z,742.50
2018-08-12T08:21:38.079Z,826.88
2018-08-12T08:22:38.225Z,781.88
2018-08-12T08:23:38.413Z,1096.88
2018-08-12T08:24:38.600Z,1141.88
2018-08-12T08:25:38.866Z,1282.50
2018-08-12T08:26:38.999Z,1535.63
2018-08-12T08:27:39.160Z,1496.25
2018-08-12T08:28:39.375Z,1288.13
2018-08-12T08:29:39.548Z,961.88
2018-08-12T08:30:39.744Z,731.25
2018-08-12T08:31:40.109Z,798.75
2018-08-12T08:32:40.130Z,714.38
2018-08-12T08:33:40.316Z,832.50
2018-08-12T08:34:40.508Z,770.63
2018-08-12T08:35:40.697Z,883.13
2018-08-12T08:36:40.886Z,753.75
2018-08-12T08:37:41.679Z,613.13
2018-08-12T08:38:41.345Z,798.75
2018-08-12T08:39:41.540Z,742.50
2018-08-12T08:40:41.723Z,517.50
2018-08-12T08:41:41.938Z,528.75
2018-08-12T08:42:42.112Z,573.75
2018-08-12T08:43:42.293Z,680.63
2018-08-12T08:44:42.489Z,759.38
2018-08-12T08:45:42.676Z,838.13
2018-08-12T08:46:42.853Z,585.00
2018-08-12T08:47:43.036Z,652.50
2018-08-12T08:48:43.242Z,810.00
2018-08-12T08:49:43.423Z,950.63
2018-08-12T08:50:43.629Z,787.50
2018-08-12T08:51:43.866Z,613.13
2018-08-12T08:52:44.000Z,562.50
2018-08-12T08:53:44.200Z,466.88
2018-08-12T08:54:44.400Z,433.13
2018-08-12T08:55:44.694Z,433.13
2018-08-12T08:56:44.803Z,461.25
2018-08-12T08:57:44.995Z,652.50
2018-08-12T08:58:45.195Z,826.88
2018-08-12T08:59:45.406Z,933.75
2018-08-12T09:00:45.574Z,1096.88
2018-08-12T09:01:45.765Z,1113.75
2018-08-12T09:02:45.963Z,1108.13
2018-08-12T09:03:46.179Z,1096.88
2018-08-12T09:04:46.338Z,1074.38
2018-08-12T09:05:46.527Z,1046.25
2018-08-12T09:06:46.715Z,1023.75
2018-08-12T09:07:46.909Z,995.63
2018-08-12T09:08:47.291Z,961.88
2018-08-12T09:09:47.297Z,916.88
2018-08-12T09:10:47.466Z,883.13
2018-08-12T09:11:47.665Z,849.38
2018-08-12T09:12:47.895Z,826.88
2018-08-12T09:13:48.099Z,798.75
2018-08-12T09:14:48.274Z,787.50
2018-08-12T09:15:48.460Z,776.25
2018-08-12T09:16:48.678Z,781.88
2018-08-12T09:17:48.879Z,787.50
2018-08-12T09:18:49.034Z,787.50
2018-08-12T09:19:49.234Z,793.13
2018-08-12T09:20:49.400Z,770.63
2018-08-12T09:21:49.606Z,725.63
2018-08-12T09:22:49.794Z,703.13
2018-08-12T09:23:50.017Z,669.38
2018-08-12T09:24:50.160Z,630.00
2018-08-12T09:25:50.359Z,596.25
2018-08-12T09:26:50.570Z,585.00
2018-08-12T09:27:50.747Z,601.88
2018-08-12T09:28:50.964Z,607.50
2018-08-12T09:29:51.137Z,596.25
2018-08-12T09:30:51.331Z,568.13
2018-08-12T09:31:51.539Z,528.75
2018-08-12T09:32:51.754Z,495.00
2018-08-12T09:33:51.948Z,466.88
2018-08-12T09:34:52.150Z,450.00
2018-08-12T09:35:52.338Z,427.50
2018-08-12T09:36:52.585Z,405.00
2018-08-12T09:37:52.733Z,388.13
2018-08-12T09:38:52.921Z,382.50
2018-08-12T09:39:53.110Z,382.50
2018-08-12T09:40:53.302Z,382.50
2018-08-12T09:41:53.494Z,382.50
2018-08-12T09:42:53.689Z,376.88
2018-08-12T09:43:53.882Z,376.88
2018-08-12T09:44:54.085Z,371.25
2018-08-12T09:45:54.272Z,376.88
2018-08-12T09:46:54.490Z,376.88
2018-08-12T09:47:54.660Z,371.25
2018-08-12T09:48:54.860Z,365.63
2018-08-12T09:49:55.052Z,371.25
2018-08-12T09:50:55.291Z,365.63
2018-08-12T09:51:55.466Z,365.63
2018-08-12T09:52:55.620Z,360.00
2018-08-12T09:53:55.813Z,360.00
2018-08-12T09:54:55.996Z,360.00
2018-08-12T09:55:56.185Z,360.00
2018-08-12T09:56:56.378Z,360.00
2018-08-12T09:57:56.562Z,360.00
2018-08-12T09:58:56.740Z,354.38
2018-08-12T09:59:56.994Z,365.63
2018-08-12T10:00:57.122Z,360.00
2018-08-12T10:01:57.317Z,360.00
2018-08-12T10:02:57.510Z,354.38
2018-08-12T10:03:57.709Z,360.00
2018-08-12T10:04:57.897Z,354.38
2018-08-12T10:05:58.142Z,360.00
2018-08-12T10:06:58.348Z,360.00
2018-08-12T10:07:58.520Z,360.00
2018-08-12T10:08:58.706Z,360.00
2018-08-12T10:09:58.921Z,354.38
2018-08-12T10:10:59.193Z,354.38
2018-08-12T10:11:59.321Z,348.75
2018-08-12T10:12:59.495Z,354.38
2018-08-12T10:13:59.667Z,354.38
2018-08-12T10:14:59.887Z,348.75
2018-08-12T10:16:00.047Z,360.00
2018-08-12T10:17:00.235Z,348.75
2018-08-12T10:18:00.475Z,354.38
2018-08-12T10:19:00.645Z,354.38
2018-08-12T10:20:00.829Z,365.63
2018-08-12T10:21:01.056Z,371.25
2018-08-12T10:22:01.218Z,376.88
2018-08-12T10:23:01.409Z,371.25
2018-08-12T10:24:01.601Z,371.25
2018-08-12T10:25:01.792Z,371.25
2018-08-12T10:26:01.979Z,376.88
2018-08-12T10:27:02.165Z,376.88
2018-08-12T10:28:02.388Z,376.88
2018-08-12T10:29:02.567Z,393.75
2018-08-12T10:30:02.742Z,393.75
2018-08-12T10:31:02.956Z,388.13
2018-08-12T10:32:03.151Z,393.75
2018-08-12T10:33:03.359Z,399.38
2018-08-12T10:34:03.535Z,399.38
2018-08-12T10:35:03.752Z,393.75
2018-08-12T10:36:03.941Z,388.13
2018-08-12T10:37:04.103Z,393.75
2018-08-12T10:38:04.296Z,399.38
2018-08-12T10:39:04.517Z,399.38
2018-08-12T10:40:04.668Z,405.00
2018-08-12T10:41:04.856Z,393.75
2018-08-12T10:42:05.049Z,371.25
2018-08-12T10:43:05.248Z,360.00
2018-08-12T10:44:05.445Z,354.38
2018-08-12T10:45:05.635Z,348.75
2018-08-12T10:46:05.827Z,337.50
2018-08-12T10:47:06.021Z,331.88
2018-08-12T10:48:06.209Z,337.50
2018-08-12T10:49:06.398Z,337.50
2018-08-12T10:50:06.590Z,337.50
2018-08-12T10:51:06.782Z,343.13
2018-08-12T10:52:06.997Z,348.75
2018-08-12T10:53:07.168Z,343.13
2018-08-12T10:54:07.344Z,348.75
2018-08-12T10:55:07.544Z,337.50
2018-08-12T10:56:07.728Z,343.13
2018-08-12T10:57:07.923Z,343.13
2018-08-12T10:58:08.115Z,343.13
2018-08-12T10:59:08.301Z,348.75
2018-08-12T11:00:08.494Z,348.75
2018-08-12T11:01:08.690Z,343.13
2018-08-12T11:02:08.880Z,337.50
2018-08-12T11:03:09.069Z,337.50
2018-08-12T11:04:09.266Z,331.88
2018-08-12T11:05:09.456Z,331.88
2018-08-12T11:06:09.654Z,326.25
2018-08-12T11:07:09.832Z,331.88
2018-08-12T11:08:10.030Z,320.63
2018-08-12T11:09:10.205Z,326.25
2018-08-12T11:10:10.398Z,326.25
2018-08-12T11:11:10.594Z,331.88
2018-08-12T11:12:10.808Z,331.88
2018-08-12T11:13:10.969Z,337.50
2018-08-12T11:14:11.180Z,337.50
2018-08-12T11:15:11.438Z,337.50
2018-08-12T11:16:11.546Z,337.50
2018-08-12T11:17:11.743Z,337.50
2018-08-12T11:18:11.929Z,337.50
2018-08-12T11:19:12.129Z,315.00
2018-08-12T11:20:12.323Z,292.50
2018-08-12T11:21:12.508Z,303.75
2018-08-12T11:22:12.703Z,309.38
2018-08-12T11:23:13.726Z,309.38
2018-08-12T11:24:13.371Z,315.00
2018-08-12T11:25:13.354Z,315.00
2018-08-12T11:26:13.528Z,320.63
2018-08-12T11:27:13.711Z,320.63
2018-08-12T11:28:13.906Z,320.63
2018-08-12T11:29:14.093Z,320.63
2018-08-12T11:30:14.280Z,320.63
2018-08-12T11:31:14.473Z,315.00
2018-08-12T11:32:14.657Z,320.63
2018-08-12T11:33:14.843Z,320.63
2018-08-12T11:34:15.035Z,320.63
2018-08-12T11:35:15.223Z,337.50
2018-08-12T11:36:15.414Z,343.13
2018-08-12T11:37:15.620Z,337.50
2018-08-12T11:38:15.779Z,337.50
2018-08-12T11:39:16.865Z,331.88
2018-08-12T11:40:16.238Z,331.88
2018-08-12T11:41:16.412Z,326.25
2018-08-12T11:42:16.599Z,326.25
2018-08-12T11:43:16.823Z,326.25
2018-08-12T11:44:16.969Z,326.25
2018-08-12T11:45:17.123Z,309.38
2018-08-12T11:46:17.315Z,315.00
2018-08-12T11:47:17.544Z,320.63
2018-08-12T11:50:00.334Z,303.75
2018-08-12T11:51:00.528Z,303.75
2018-08-12T11:52:00.707Z,303.75
2018-08-12T11:53:00.898Z,315.00
2018-08-12T11:54:01.144Z,315.00
2018-08-12T11:55:02.236Z,309.38
2018-08-12T11:56:01.567Z,315.00
2018-08-12T11:57:01.759Z,320.63
2018-08-12T11:58:01.906Z,326.25
2018-08-12T11:59:02.074Z,320.63
2018-08-12T12:00:02.260Z,309.38
2018-08-12T12:01:02.390Z,309.38
2018-08-12T12:02:02.569Z,309.38
2018-08-12T12:03:02.784Z,315.00
2018-08-12T12:04:02.974Z,331.88
2018-08-12T12:05:03.153Z,320.63
2018-08-12T12:06:03.349Z,309.38
2018-08-12T12:07:03.514Z,315.00
2018-08-12T12:08:03.722Z,315.00
2018-08-12T12:09:03.899Z,326.25
2018-08-12T12:10:04.081Z,315.00
2018-08-12T12:11:04.244Z,303.75
2018-08-12T12:12:04.429Z,298.13
2018-08-12T12:13:04.613Z,298.13
2018-08-12T12:14:04.795Z,298.13
2018-08-12T12:15:04.993Z,303.75
2018-08-12T12:16:05.181Z,303.75
2018-08-12T12:17:05.412Z,303.75
2018-08-12T12:18:05.546Z,320.63
2018-08-12T12:19:05.737Z,303.75
2018-08-12T12:20:05.939Z,303.75
2018-08-12T12:21:06.100Z,292.50
2018-08-12T12:22:06.311Z,309.38
2018-08-12T12:23:06.453Z,309.38
2018-08-12T12:24:06.637Z,303.75
2018-08-12T12:25:06.826Z,309.38
2018-08-12T12:26:07.078Z,309.38
2018-08-12T12:27:07.204Z,309.38
2018-08-12T12:28:07.397Z,315.00
2018-08-12T12:29:15.349Z,309.38
2018-08-12T12:30:07.724Z,298.13
2018-08-12T12:31:08.495Z,309.38
2018-08-12T12:32:08.162Z,303.75
2018-08-12T12:33:08.277Z,303.75
2018-08-12T12:34:08.563Z,315.00
2018-08-12T12:35:08.774Z,320.63
2018-08-12T12:36:08.866Z,309.38
2018-08-12T12:37:09.089Z,315.00
2018-08-12T12:39:51.899Z,303.75
2018-08-12T12:40:52.180Z,303.75
2018-08-12T12:41:52.340Z,315.00
2018-08-12T12:42:52.530Z,309.38
2018-08-12T12:43:52.791Z,315.00
2018-08-12T12:44:52.923Z,303.75
2018-08-12T12:45:53.053Z,292.50